Time;durP1;ratioP1;P1;durP2;ratioP2;P2;SDS_P1;SDS_P2;PMS_P1;PMS_P2;Temp;Humidity;BMP_temperature;BMP_pressure;BME280_temperature;BME280_humidity;BME280_pressure;Samples;Min_cycle;Max_cycle;Signal;HPM_P1;HPM_P2
2020/12/12 00:02:20;;;;;;;18.67;16.70;;;6.90;93.00;;;;;;5032592;28;20402;-74
2020/12/12 00:04:46;;;;;;;18.15;16.25;;;6.90;93.00;;;;;;5014519;28;20056;-75
2020/12/12 00:07:12;;;;;;;17.45;15.23;;;6.90;93.00;;;;;;5032318;28;20065;-74
2020/12/12 00:09:37;;;;;;;20.02;17.33;;;6.90;93.10;;;;;;5032800;28;20111;-74
2020/12/12 00:12:04;;;;;;;20.30;15.70;;;6.90;93.10;;;;;;5032125;28;20017;-74
2020/12/12 00:14:31;;;;;;;20.98;17.38;;;6.90;93.10;;;;;;5032737;28;20025;-74
2020/12/12 00:16:57;;;;;;;18.52;16.35;;;6.90;93.10;;;;;;5032471;28;20080;-72
2020/12/12 00:19:22;;;;;;;18.05;16.13;;;6.80;93.10;;;;;;5032006;28;20025;-72
2020/12/12 00:21:55;;;;;;;68.97;18.45;;;6.90;93.20;;;;;;5032475;28;20033;-73
2020/12/12 00:24:21;;;;;;;19.80;16.75;;;6.90;93.20;;;;;;5032839;28;20440;-75
2020/12/12 00:26:47;;;;;;;18.98;16.90;;;6.90;93.20;;;;;;5014287;28;20060;-75
2020/12/12 00:29:13;;;;;;;19.08;16.35;;;6.90;93.20;;;;;;5032321;28;20069;-73
2020/12/12 00:31:40;;;;;;;17.50;15.70;;;6.90;93.20;;;;;;5032494;28;20074;-72
2020/12/12 00:34:06;;;;;;;17.90;15.77;;;6.90;93.20;;;;;;5031725;28;20104;-75
2020/12/12 00:36:37;;;;;;;17.33;15.52;;;6.90;93.20;;;;;;5032556;28;20061;-76
2020/12/12 00:39:03;;;;;;;17.58;15.68;;;6.90;93.50;;;;;;5031752;28;20028;-71
2020/12/12 00:41:34;;;;;;;17.30;15.40;;;6.90;93.20;;;;;;5014771;28;20120;-74
2020/12/12 00:43:59;;;;;;;17.83;15.70;;;6.90;93.20;;;;;;5034623;28;20029;-73
2020/12/12 00:46:28;;;;;;;17.23;15.15;;;6.90;93.20;;;;;;5035802;28;20359;-74
2020/12/12 00:48:53;;;;;;;16.15;14.43;;;6.90;93.30;;;;;;5035994;28;20045;-75
2020/12/12 00:51:19;;;;;;;20.30;14.98;;;6.90;93.30;;;;;;5036322;28;20025;-71
2020/12/12 00:53:44;;;;;;;17.10;15.30;;;6.90;93.30;;;;;;5017594;28;20025;-74
2020/12/12 00:56:10;;;;;;;18.42;15.20;;;6.90;93.30;;;;;;5017821;28;20052;-72
2020/12/12 00:58:35;;;;;;;18.40;15.70;;;6.90;93.30;;;;;;5035821;28;20052;-74
2020/12/12 01:01:01;;;;;;;17.90;15.27;;;6.90;93.30;;;;;;5034883;28;20021;-74
2020/12/12 01:03:26;;;;;;;16.65;14.95;;;6.90;93.30;;;;;;5035588;28;20061;-73
2020/12/12 01:05:52;;;;;;;17.17;15.23;;;6.90;93.30;;;;;;5017585;28;20052;-72
2020/12/12 01:08:17;;;;;;;17.92;14.70;;;6.90;93.30;;;;;;5035211;28;20030;-72
2020/12/12 01:10:43;;;;;;;16.52;14.43;;;6.90;93.30;;;;;;5035593;28;20033;-73
2020/12/12 01:13:08;;;;;;;18.65;15.48;;;6.90;93.30;;;;;;5017318;28;20029;-74
2020/12/12 01:15:34;;;;;;;18.25;15.48;;;6.90;93.30;;;;;;5034734;28;20470;-74
2020/12/12 01:18:00;;;;;;;18.40;15.02;;;7.00;93.30;;;;;;5035042;28;20045;-73
2020/12/12 01:20:25;;;;;;;22.27;16.70;;;7.00;93.30;;;;;;5035321;28;20022;-73
2020/12/12 01:22:51;;;;;;;17.42;15.57;;;7.00;93.30;;;;;;5034690;28;20030;-73
2020/12/12 01:25:17;;;;;;;19.00;16.75;;;7.00;93.40;;;;;;5035432;28;20018;-73
2020/12/12 01:27:43;;;;;;;18.08;15.82;;;7.00;93.40;;;;;;5035289;28;20033;-74
2020/12/12 01:30:08;;;;;;;18.63;16.63;;;7.00;93.40;;;;;;5033952;28;20118;-72
2020/12/12 01:32:34;;;;;;;20.42;16.67;;;6.90;93.40;;;;;;5035080;28;20424;-73
2020/12/12 01:34:59;;;;;;;20.70;17.02;;;6.90;93.40;;;;;;5034722;28;20073;-73
2020/12/12 01:37:25;;;;;;;18.83;15.95;;;6.90;93.40;;;;;;5034339;28;20067;-73
2020/12/12 01:39:51;;;;;;;20.33;16.88;;;6.90;93.40;;;;;;5035027;28;20029;-73
2020/12/12 01:42:16;;;;;;;19.75;17.65;;;7.00;93.50;;;;;;5034376;28;20021;-72
2020/12/12 01:44:42;;;;;;;21.70;18.08;;;6.90;93.40;;;;;;5017249;28;20025;-71
2020/12/12 01:47:09;;;;;;;21.20;17.73;;;6.90;93.50;;;;;;5034628;28;20279;-74
2020/12/12 01:49:34;;;;;;;20.42;17.65;;;6.90;93.50;;;;;;5034137;28;20454;-72
2020/12/12 01:52:00;;;;;;;20.52;17.95;;;6.90;93.50;;;;;;5034678;28;20029;-71
2020/12/12 01:54:26;;;;;;;20.08;17.30;;;6.90;93.50;;;;;;5034585;28;20084;-74
2020/12/12 01:56:54;;;;;;;20.92;18.40;;;6.90;93.50;;;;;;5033848;28;20017;-71
2020/12/12 01:59:19;;;;;;;22.80;18.42;;;7.00;93.60;;;;;;5034884;28;20024;-73
2020/12/12 02:01:49;;;;;;;20.67;18.05;;;6.90;93.50;;;;;;5034652;28;20433;-73
2020/12/12 02:04:21;;;;;;;21.02;18.42;;;6.90;93.50;;;;;;5033761;28;20021;-72
2020/12/12 02:06:46;;;;;;;23.38;19.17;;;6.90;93.60;;;;;;5034634;28;20032;-73
2020/12/12 02:09:15;;;;;;;24.50;19.25;;;6.90;93.60;;;;;;5033983;28;20034;-75
2020/12/12 02:11:41;;;;;;;22.20;18.38;;;6.90;93.60;;;;;;5033867;28;20033;-70
2020/12/12 02:14:09;;;;;;;21.27;17.88;;;6.90;93.60;;;;;;5034258;28;20437;-73
2020/12/12 02:16:50;;;;;;;22.25;18.58;;;6.90;93.70;;;;;;5034345;28;20467;-74
2020/12/12 02:19:16;;;;;;;24.55;18.77;;;6.90;93.60;;;;;;5015935;28;20040;-73
2020/12/12 02:21:41;;;;;;;22.17;19.75;;;6.90;93.60;;;;;;5034412;28;20454;-74
2020/12/12 02:24:07;;;;;;;22.48;18.83;;;6.90;93.70;;;;;;5016362;28;20064;-71
2020/12/12 02:26:33;;;;;;;23.77;19.20;;;6.90;93.70;;;;;;5033689;28;20104;-69
2020/12/12 02:28:58;;;;;;;22.23;18.80;;;6.90;93.70;;;;;;5032324;28;20029;-71
2020/12/12 02:31:27;;;;;;;26.55;19.67;;;6.90;93.70;;;;;;5023527;28;20335;-75
2020/12/12 02:33:52;;;;;;;28.45;19.88;;;6.90;93.70;;;;;;5036468;28;20033;-74
2020/12/12 02:36:18;;;;;;;21.45;18.75;;;6.90;93.70;;;;;;5032039;28;20033;-72
2020/12/12 02:38:43;;;;;;;21.17;17.05;;;6.90;93.70;;;;;;5032930;28;20029;-73
2020/12/12 02:41:09;;;;;;;21.73;17.77;;;6.90;93.70;;;;;;5033799;28;20021;-75
2020/12/12 02:43:35;;;;;;;21.77;17.45;;;6.90;93.80;;;;;;5034034;28;20372;-75
2020/12/12 02:46:01;;;;;;;23.02;17.98;;;6.90;93.80;;;;;;5033098;28;20032;-76
2020/12/12 02:48:27;;;;;;;21.35;18.30;;;6.90;93.80;;;;;;5033942;28;20089;-74
2020/12/12 02:50:52;;;;;;;20.77;17.90;;;7.00;93.80;;;;;;5033543;28;20018;-75
2020/12/12 02:53:18;;;;;;;19.77;17.55;;;6.90;93.70;;;;;;5033419;28;20036;-75
2020/12/12 02:55:43;;;;;;;20.05;17.92;;;7.00;93.70;;;;;;5033862;28;20051;-75
2020/12/12 02:58:09;;;;;;;21.25;17.65;;;7.00;93.80;;;;;;5015766;28;20048;-72
2020/12/12 03:00:34;;;;;;;19.80;17.35;;;7.00;93.80;;;;;;5032868;28;20444;-73
2020/12/12 03:03:00;;;;;;;21.58;17.83;;;7.00;93.80;;;;;;5033036;28;20033;-69
2020/12/12 03:05:25;;;;;;;20.25;16.85;;;7.00;93.80;;;;;;5033046;28;20029;-76
2020/12/12 03:07:51;;;;;;;22.00;17.83;;;7.00;93.80;;;;;;5032433;28;20117;-71
2020/12/12 03:10:17;;;;;;;22.40;17.77;;;7.00;93.80;;;;;;5033371;28;20113;-71
2020/12/12 03:12:42;;;;;;;20.50;17.42;;;7.00;93.80;;;;;;5033227;28;20033;-75
2020/12/12 03:15:09;;;;;;;19.98;16.60;;;6.90;93.80;;;;;;5032426;28;20021;-73
2020/12/12 03:17:36;;;;;;;23.55;18.88;;;7.00;93.90;;;;;;5033359;28;20486;-71
2020/12/12 03:20:03;;;;;;;23.52;18.35;;;7.00;93.90;;;;;;5033142;28;20033;-73
2020/12/12 03:22:29;;;;;;;23.05;18.88;;;7.00;93.90;;;;;;5032694;28;20025;-76
2020/12/12 03:24:54;;;;;;;22.95;18.90;;;7.00;93.90;;;;;;5033076;28;20104;-70
2020/12/12 03:27:20;;;;;;;23.63;18.95;;;7.00;93.90;;;;;;5032965;28;20105;-73
2020/12/12 03:29:45;;;;;;;22.35;18.35;;;7.00;93.80;;;;;;5032460;28;20502;-69
2020/12/12 03:32:11;;;;;;;21.95;18.08;;;7.00;93.80;;;;;;5032713;28;20486;-70
2020/12/12 03:34:38;;;;;;;21.55;18.02;;;7.00;93.80;;;;;;5033169;28;20033;-75
2020/12/12 03:37:05;;;;;;;22.10;19.08;;;7.00;93.90;;;;;;5032204;28;20024;-74
2020/12/12 03:39:31;;;;;;;23.45;18.33;;;7.00;93.90;;;;;;5033030;28;20488;-74
2020/12/12 03:41:56;;;;;;;24.42;18.63;;;7.00;93.90;;;;;;5032049;28;20021;-74
2020/12/12 03:44:23;;;;;;;21.75;18.05;;;7.00;93.90;;;;;;5015464;28;20060;-76
2020/12/12 03:46:48;;;;;;;21.02;18.83;;;7.00;93.90;;;;;;5015531;28;20478;-74
2020/12/12 03:49:14;;;;;;;20.08;17.85;;;7.00;93.90;;;;;;5014382;28;20044;-74
2020/12/12 03:51:39;;;;;;;19.83;17.60;;;7.00;93.90;;;;;;5033179;28;20025;-73
2020/12/12 03:54:05;;;;;;;20.17;16.80;;;7.00;93.90;;;;;;5032659;28;20025;-75
2020/12/12 03:56:30;;;;;;;19.95;17.48;;;7.00;94.00;;;;;;5032571;28;20021;-76
2020/12/12 03:58:56;;;;;;;23.05;18.50;;;7.00;94.00;;;;;;5032454;28;20092;-74
2020/12/12 04:01:22;;;;;;;21.05;17.90;;;7.00;94.00;;;;;;5032953;28;20556;-73
2020/12/12 04:03:47;;;;;;;22.38;19.45;;;7.00;94.00;;;;;;5032048;28;20466;-74
2020/12/12 04:06:13;;;;;;;21.63;18.33;;;7.00;94.00;;;;;;5032553;28;20442;-75
2020/12/12 04:08:38;;;;;;;20.02;17.92;;;7.00;94.00;;;;;;5015361;28;20124;-77
2020/12/12 04:11:04;;;;;;;22.38;18.05;;;7.00;94.00;;;;;;5014274;28;20025;-76
2020/12/12 04:13:30;;;;;;;19.05;17.05;;;7.00;94.00;;;;;;5032781;28;20032;-77
2020/12/12 04:15:56;;;;;;;20.30;18.08;;;7.00;94.00;;;;;;5032600;28;20064;-74
2020/12/12 04:18:21;;;;;;;19.85;17.75;;;7.00;94.00;;;;;;5034856;28;20021;-77
2020/12/12 04:20:47;;;;;;;19.70;17.60;;;7.00;94.00;;;;;;5036636;28;20032;-76
2020/12/12 04:23:13;;;;;;;21.98;17.55;;;7.00;94.10;;;;;;5018505;28;20440;-76
2020/12/12 04:25:39;;;;;;;20.75;17.73;;;7.00;94.10;;;;;;5018274;28;20059;-76
2020/12/12 04:28:04;;;;;;;23.20;18.33;;;7.00;94.10;;;;;;5036127;28;20040;-74
2020/12/12 04:30:30;;;;;;;20.25;17.85;;;7.00;94.10;;;;;;5036514;28;20095;-72
2020/12/12 04:32:56;;;;;;;24.02;18.58;;;7.00;94.10;;;;;;5035507;28;20600;-72
2020/12/12 04:35:21;;;;;;;19.70;17.60;;;7.00;94.10;;;;;;5036387;28;20029;-75
2020/12/12 04:37:47;;;;;;;21.67;18.38;;;7.00;94.10;;;;;;5036439;28;20021;-75
2020/12/12 04:40:13;;;;;;;19.80;17.65;;;7.00;94.10;;;;;;5017703;28;20036;-75
2020/12/12 04:42:42;;;;;;;20.55;17.95;;;7.00;94.10;;;;;;5036661;28;20436;-76
2020/12/12 04:45:09;;;;;;;21.58;18.08;;;7.00;94.10;;;;;;5035520;28;20018;-76
2020/12/12 04:47:36;;;;;;;19.60;17.08;;;7.10;94.10;;;;;;5036307;28;20018;-77
2020/12/12 04:50:02;;;;;;;20.45;16.85;;;7.10;94.10;;;;;;5035895;28;20032;-77
2020/12/12 04:52:30;;;;;;;21.10;17.92;;;7.10;94.10;;;;;;5018106;28;20510;-76
2020/12/12 04:55:01;;;;;;;20.90;17.45;;;7.10;94.10;;;;;;5036238;28;20056;-76
2020/12/12 04:57:32;;;;;;;22.00;17.65;;;7.10;94.10;;;;;;5036466;28;20013;-70
2020/12/12 05:00:00;;;;;;;20.25;17.20;;;7.10;94.10;;;;;;5035278;28;20092;-73
2020/12/12 05:02:26;;;;;;;21.27;18.67;;;7.10;94.10;;;;;;5035658;28;20025;-71
2020/12/12 05:04:52;;;;;;;21.65;18.33;;;7.10;94.10;;;;;;5035634;28;20026;-73
2020/12/12 05:07:17;;;;;;;21.85;17.88;;;7.10;94.10;;;;;;5035176;28;20028;-72
2020/12/12 05:09:44;;;;;;;23.65;18.58;;;7.10;94.10;;;;;;5035768;28;20037;-70
2020/12/12 05:12:13;;;;;;;23.00;18.08;;;7.10;94.10;;;;;;5035431;28;20022;-74
2020/12/12 05:14:38;;;;;;;21.88;17.60;;;7.10;94.10;;;;;;5034978;28;20168;-72
2020/12/12 05:17:07;;;;;;;23.85;19.08;;;7.10;94.10;;;;;;5035237;28;20060;-73
2020/12/12 05:19:33;;;;;;;22.08;18.95;;;7.10;94.10;;;;;;5017636;28;20049;-75
2020/12/12 05:22:02;;;;;;;24.00;18.00;;;7.10;94.10;;;;;;5016713;28;20061;-74
2020/12/12 05:24:29;;;;;;;21.60;17.83;;;7.10;94.10;;;;;;5035594;28;20079;-74
2020/12/12 05:27:01;;;;;;;21.33;17.75;;;7.10;94.10;;;;;;5017317;28;20029;-73
2020/12/12 05:29:27;;;;;;;21.23;17.55;;;7.10;94.10;;;;;;5033574;28;20119;-74
2020/12/12 05:31:57;;;;;;;20.95;17.30;;;7.10;94.10;;;;;;5035060;28;20025;-73
2020/12/12 05:34:24;;;;;;;23.02;17.90;;;7.20;94.10;;;;;;5034540;28;20072;-70
2020/12/12 05:36:50;;;;;;;22.90;17.23;;;7.20;94.20;;;;;;5035071;28;20026;-70
2020/12/12 05:39:15;;;;;;;20.00;16.75;;;7.20;94.20;;;;;;5034798;28;20024;-69
2020/12/12 05:41:43;;;;;;;20.92;17.95;;;7.20;94.20;;;;;;5034233;28;20541;-69
2020/12/12 05:44:09;;;;;;;21.67;17.38;;;7.20;94.10;;;;;;5034657;28;20104;-69
2020/12/12 05:46:35;;;;;;;24.08;18.48;;;7.20;94.10;;;;;;5017135;28;20075;-69
2020/12/12 05:49:02;;;;;;;19.00;16.90;;;7.20;94.10;;;;;;5016104;28;20473;-73
2020/12/12 05:51:28;;;;;;;23.50;16.90;;;7.20;94.10;;;;;;5035016;28;20021;-75
2020/12/12 05:53:55;;;;;;;20.20;15.90;;;7.20;94.10;;;;;;5034526;28;20056;-74
2020/12/12 05:56:26;;;;;;;19.45;17.05;;;7.20;94.10;;;;;;5034139;28;20486;-76
2020/12/12 05:58:53;;;;;;;21.67;17.00;;;7.20;94.10;;;;;;5034621;28;20021;-70
2020/12/12 06:01:21;;;;;;;23.52;17.27;;;7.30;94.10;;;;;;5034907;28;20025;-73
2020/12/12 06:04:09;;;;;;;22.67;17.17;;;7.30;94.10;;;;;;5016275;28;20437;-75
2020/12/12 06:06:43;;;;;;;18.48;16.30;;;7.20;94.10;;;;;;5034819;28;20558;-75
2020/12/12 06:09:13;;;;;;;22.05;16.67;;;7.30;94.10;;;;;;5034311;28;20076;-73
2020/12/12 06:11:46;;;;;;;20.55;16.45;;;7.20;94.10;;;;;;5033919;28;20037;-76
2020/12/12 06:14:12;;;;;;;27.45;17.33;;;7.30;94.40;;;;;;5034197;28;20112;-76
2020/12/12 06:16:38;;;;;;;24.73;17.40;;;7.30;94.10;;;;;;5033964;28;20017;-71
2020/12/12 06:19:12;;;;;;;23.85;17.10;;;7.30;94.10;;;;;;5034402;28;20034;-76
2020/12/12 06:21:45;;;;;;;24.13;18.52;;;7.30;94.10;;;;;;5034514;28;20025;-69
2020/12/12 06:24:13;;;;;;;19.23;15.77;;;7.30;94.10;;;;;;5015628;28;20031;-69
2020/12/12 06:26:41;;;;;;;22.85;15.88;;;7.30;94.10;;;;;;5034125;28;20063;-69
2020/12/12 06:29:08;;;;;;;26.02;17.02;;;7.30;94.10;;;;;;5033738;28;20033;-70
2020/12/12 06:31:36;;;;;;;20.92;15.50;;;7.30;94.10;;;;;;5033196;28;20401;-69
2020/12/12 06:34:02;;;;;;;22.13;17.63;;;7.30;94.20;;;;;;5033831;28;20025;-76
2020/12/12 06:36:33;;;;;;;24.92;16.65;;;7.30;94.20;;;;;;5034704;28;20144;-73
2020/12/12 06:39:25;;;;;;;27.92;16.50;;;7.30;94.20;;;;;;5033327;28;20355;-76
2020/12/12 06:41:57;;;;;;;23.05;16.55;;;7.40;94.20;;;;;;5016474;28;20028;-74
2020/12/12 06:44:36;;;;;;;27.48;16.25;;;7.40;94.20;;;;;;5034394;28;20025;-75
2020/12/12 06:47:06;;;;;;;22.75;16.15;;;7.30;94.20;;;;;;5032916;28;20025;-73
2020/12/12 06:49:33;;;;;;;23.75;15.95;;;7.40;94.20;;;;;;5033748;28;20029;-74
2020/12/12 06:52:00;;;;;;;21.58;16.08;;;7.40;94.30;;;;;;5032433;28;20079;-74
2020/12/12 06:54:25;;;;;;;22.48;15.50;;;7.40;94.30;;;;;;5033762;28;20473;-75
2020/12/12 06:56:51;;;;;;;17.70;15.20;;;7.40;94.30;;;;;;5038922;28;20060;-74
2020/12/12 06:59:37;;;;;;;18.27;14.23;;;7.40;94.40;;;;;;5039197;28;20029;-75
2020/12/12 07:02:04;;;;;;;17.85;14.52;;;7.40;94.40;;;;;;5033741;28;20534;-74
2020/12/12 07:04:32;;;;;;;19.90;14.77;;;7.40;94.30;;;;;;5031635;28;20025;-74
2020/12/12 07:07:09;;;;;;;19.50;14.18;;;7.40;94.40;;;;;;5052476;28;20017;-74
2020/12/12 07:09:39;;;;;;;15.63;13.43;;;7.40;94.40;;;;;;5035772;28;20133;-73
2020/12/12 07:12:05;;;;;;;16.58;12.88;;;7.50;94.40;;;;;;5015196;28;20013;-73
2020/12/12 07:14:31;;;;;;;21.20;13.73;;;7.50;94.40;;;;;;5032495;28;20036;-73
2020/12/12 07:16:59;;;;;;;19.83;14.07;;;7.50;94.40;;;;;;5032827;28;20437;-74
2020/12/12 07:19:34;;;;;;;15.38;12.75;;;7.50;94.40;;;;;;5033381;28;20075;-74
2020/12/12 07:22:00;;;;;;;19.55;12.45;;;7.50;94.60;;;;;;5032173;28;20032;-74
2020/12/12 07:24:27;;;;;;;27.15;14.30;;;7.50;94.40;;;;;;5033155;28;20056;-75
2020/12/12 07:26:54;;;;;;;18.15;12.77;;;7.50;94.30;;;;;;5033384;28;20022;-70
2020/12/12 07:29:21;;;;;;;19.05;13.90;;;7.50;94.30;;;;;;5038089;28;20099;-70
2020/12/12 07:31:47;;;;;;;21.98;14.50;;;7.50;94.30;;;;;;5016946;28;20041;-70
2020/12/12 07:34:21;;;;;;;24.67;14.25;;;7.60;94.40;;;;;;5032098;28;20041;-70
2020/12/12 07:36:59;;;;;;;22.75;14.98;;;7.60;94.40;;;;;;5032674;28;20029;-74
2020/12/12 07:39:29;;;;;;;31.08;13.95;;;7.60;94.40;;;;;;5032371;28;20025;-73
2020/12/12 07:41:58;;;;;;;28.95;14.05;;;7.60;94.40;;;;;;5032688;28;20031;-70
2020/12/12 07:44:23;;;;;;;28.25;14.23;;;7.60;94.40;;;;;;5020840;28;20116;-74
2020/12/12 07:46:54;;;;;;;49.22;16.00;;;7.60;94.40;;;;;;5020789;28;20111;-73
2020/12/12 07:49:20;;;;;;;28.15;14.68;;;7.60;94.30;;;;;;5042647;28;20566;-75
2020/12/12 07:51:45;;;;;;;31.52;15.85;;;7.60;94.30;;;;;;5036720;28;20021;-74
2020/12/12 07:54:21;;;;;;;33.33;15.77;;;7.60;94.30;;;;;;5059086;28;20056;-73
2020/12/12 07:56:54;;;;;;;38.63;14.85;;;7.60;94.30;;;;;;5047443;28;20105;-72
2020/12/12 07:59:20;;;;;;;39.70;15.30;;;7.70;94.40;;;;;;5039345;28;20017;-73
2020/12/12 08:01:50;;;;;;;50.90;18.73;;;7.70;94.30;;;;;;5039299;28;20028;-71
2020/12/12 08:04:20;;;;;;;41.45;17.42;;;7.70;94.40;;;;;;5038486;28;20014;-70
2020/12/12 08:06:45;;;;;;;39.08;17.52;;;7.70;94.40;;;;;;5039353;28;20026;-73
2020/12/12 08:09:11;;;;;;;38.80;17.45;;;7.70;94.40;;;;;;5026947;28;20033;-74
2020/12/12 08:11:37;;;;;;;38.15;17.20;;;7.60;94.30;;;;;;5038922;28;20037;-74
2020/12/12 08:14:05;;;;;;;42.00;17.23;;;7.70;94.40;;;;;;5038800;28;20374;-74
2020/12/12 08:17:03;;;;;;;34.15;18.10;;;7.70;94.40;;;;;;5020840;28;20422;-73
2020/12/12 08:19:22;;;;;;;60.00;17.88;;;7.70;94.40;;;;;;5036327;28;20099;-76
2020/12/12 08:22:07;;;;;;;44.10;18.45;;;7.70;94.30;;;;;;5039080;28;20097;-75
2020/12/12 08:24:32;;;;;;;44.35;18.60;;;7.70;94.30;;;;;;5038718;28;20068;-72
2020/12/12 08:26:58;;;;;;;51.08;19.02;;;7.70;94.30;;;;;;5038799;28;20489;-75
2020/12/12 08:29:24;;;;;;;40.63;18.67;;;7.80;94.40;;;;;;5039007;28;20124;-73
2020/12/12 08:31:49;;;;;;;61.97;19.83;;;7.80;94.40;;;;;;5020504;28;20084;-74
2020/12/12 08:34:21;;;;;;;40.33;18.88;;;7.80;94.40;;;;;;5021052;28;20028;-74
2020/12/12 08:36:47;;;;;;;48.08;19.50;;;7.90;94.40;;;;;;5038863;28;20044;-75
2020/12/12 08:39:12;;;;;;;44.95;21.23;;;7.90;94.40;;;;;;5038210;28;20445;-75
2020/12/12 08:41:40;;;;;;;50.80;22.52;;;7.90;94.40;;;;;;5039191;28;20111;-76
2020/12/12 08:44:07;;;;;;;43.85;20.50;;;7.90;94.40;;;;;;5020973;28;20032;-73
2020/12/12 08:46:33;;;;;;;41.47;20.90;;;7.90;94.40;;;;;;5020899;28;20385;-72
2020/12/12 08:48:59;;;;;;;48.47;21.77;;;7.90;94.40;;;;;;5037992;28;20040;-72
2020/12/12 08:51:31;;;;;;;60.97;22.42;;;7.90;94.40;;;;;;5025832;28;20026;-71
2020/12/12 08:53:57;;;;;;;54.70;22.05;;;7.90;94.70;;;;;;5018915;28;20084;-72
2020/12/12 08:56:25;;;;;;;45.97;21.60;;;8.00;94.40;;;;;;5021115;28;20024;-70
2020/12/12 08:58:51;;;;;;;58.95;22.42;;;8.00;94.40;;;;;;5020653;28;20033;-72
2020/12/12 09:01:28;;;;;;;62.17;22.42;;;8.00;94.40;;;;;;5039092;28;20482;-73
2020/12/12 09:04:04;;;;;;;56.88;25.10;;;8.00;94.40;;;;;;5035771;28;20029;-75
2020/12/12 09:06:33;;;;;;;57.55;23.60;;;8.00;94.40;;;;;;5031695;28;20030;-72
2020/12/12 09:09:22;;;;;;;62.08;23.15;;;8.00;94.40;;;;;;4997821;28;20124;-75
2020/12/12 09:12:00;;;;;;;56.22;25.27;;;8.00;94.40;;;;;;5015753;28;20030;-70
2020/12/12 09:14:27;;;;;;;53.08;22.73;;;8.00;94.40;;;;;;5014980;28;20026;-70
2020/12/12 09:16:56;;;;;;;58.28;22.80;;;8.10;94.50;;;;;;5015244;28;20541;-74
2020/12/12 09:19:23;;;;;;;52.95;23.67;;;8.10;94.50;;;;;;5015626;28;20026;-71
2020/12/12 09:21:49;;;;;;;48.88;23.70;;;8.10;94.50;;;;;;5015039;28;20018;-73
2020/12/12 09:24:15;;;;;;;45.72;24.40;;;8.10;94.40;;;;;;4997803;28;20036;-70
2020/12/12 09:26:41;;;;;;;77.88;26.92;;;8.10;94.40;;;;;;5014858;28;20100;-74
2020/12/12 09:29:07;;;;;;;96.95;27.90;;;8.10;94.50;;;;;;4997409;28;20120;-75
2020/12/12 09:31:33;;;;;;;74.68;30.33;;;8.10;94.40;;;;;;5015094;28;20042;-73
2020/12/12 09:33:58;;;;;;;73.97;28.85;;;8.20;94.50;;;;;;4996639;28;20022;-74
2020/12/12 09:36:24;;;;;;;75.05;28.45;;;8.20;94.50;;;;;;5023455;28;20052;-76
2020/12/12 09:38:50;;;;;;;76.22;27.48;;;8.20;94.40;;;;;;5034616;28;20026;-75
2020/12/12 09:41:16;;;;;;;69.00;27.25;;;8.20;94.50;;;;;;5010776;28;20489;-77
2020/12/12 09:43:42;;;;;;;51.17;23.23;;;8.20;94.40;;;;;;5015293;28;20037;-72
2020/12/12 09:46:08;;;;;;;64.90;24.17;;;8.20;94.40;;;;;;5027339;28;20033;-72
2020/12/12 09:48:36;;;;;;;80.10;24.92;;;8.30;94.40;;;;;;5034183;28;20128;-70
2020/12/12 09:51:01;;;;;;;76.57;22.65;;;8.30;94.40;;;;;;5034552;28;20021;-73
2020/12/12 09:53:27;;;;;;;51.67;22.85;;;8.30;94.40;;;;;;5034577;28;20373;-73
2020/12/12 09:55:53;;;;;;;76.38;22.92;;;8.40;94.30;;;;;;5015909;28;20367;-72
2020/12/12 09:58:19;;;;;;;61.55;22.95;;;8.40;94.30;;;;;;5022034;28;20026;-71
2020/12/12 10:00:45;;;;;;;47.92;22.55;;;8.50;94.50;;;;;;4997310;28;20076;-70
2020/12/12 10:03:10;;;;;;;60.25;23.00;;;8.60;94.10;;;;;;5013705;28;20818;-73
2020/12/12 10:05:36;;;;;;;70.95;23.45;;;8.70;94.00;;;;;;5014808;28;20097;-69
2020/12/12 10:08:04;;;;;;;60.88;23.83;;;8.70;93.80;;;;;;5014296;28;20037;-76
2020/12/12 10:10:30;;;;;;;61.55;24.92;;;8.80;93.80;;;;;;5014283;28;20537;-70
2020/12/12 10:12:56;;;;;;;69.25;21.90;;;8.80;93.70;;;;;;4997262;28;20028;-71
2020/12/12 10:15:23;;;;;;;58.20;22.45;;;8.80;93.60;;;;;;5014280;28;20085;-73
2020/12/12 10:17:50;;;;;;;52.97;24.63;;;8.90;93.60;;;;;;5016819;28;20520;-72
2020/12/12 10:20:16;;;;;;;54.20;23.08;;;8.90;93.60;;;;;;5016156;28;20022;-76
2020/12/12 10:22:42;;;;;;;73.50;23.85;;;8.90;93.50;;;;;;5015979;28;20152;-75
2020/12/12 10:25:08;;;;;;;39.70;23.38;;;9.00;93.50;;;;;;5020896;28;20109;-71
2020/12/12 10:27:34;;;;;;;51.30;22.92;;;9.00;93.50;;;;;;5014292;28;20030;-70
2020/12/12 10:30:00;;;;;;;80.90;24.05;;;9.10;93.40;;;;;;5004459;28;20522;-76
2020/12/12 10:32:26;;;;;;;54.55;23.00;;;9.10;93.40;;;;;;5034036;28;20107;-75
2020/12/12 10:34:52;;;;;;;57.88;21.60;;;9.20;93.30;;;;;;5035767;28;20389;-74
2020/12/12 10:37:17;;;;;;;57.03;21.88;;;9.20;93.30;;;;;;5040025;28;20022;-74
2020/12/12 10:40:11;;;;;;;59.65;22.35;;;9.20;93.30;;;;;;5034050;28;20155;-76
2020/12/12 10:42:29;;;;;;;60.60;22.77;;;9.20;93.20;;;;;;5033405;28;20029;-73
2020/12/12 10:44:54;;;;;;;56.65;21.58;;;9.30;93.20;;;;;;5015379;28;20021;-75
2020/12/12 10:47:20;;;;;;;52.55;22.30;;;9.30;93.20;;;;;;5033895;28;20374;-73
2020/12/12 10:49:46;;;;;;;60.33;22.58;;;9.30;93.10;;;;;;5052566;28;20040;-70
2020/12/12 10:52:11;;;;;;;53.30;22.90;;;9.30;93.10;;;;;;5052804;28;20543;-76
2020/12/12 10:54:38;;;;;;;60.92;23.42;;;9.30;93.10;;;;;;5054066;28;20138;-73
2020/12/12 10:57:03;;;;;;;57.67;22.90;;;9.30;93.00;;;;;;5048215;28;20026;-72
2020/12/12 10:59:29;;;;;;;52.90;23.92;;;9.30;93.00;;;;;;5029878;28;20515;-70
2020/12/12 11:01:55;;;;;;;57.30;22.98;;;9.30;93.00;;;;;;5050717;28;20500;-70
2020/12/12 11:04:24;;;;;;;62.22;23.52;;;9.40;93.00;;;;;;5048998;28;20029;-73
2020/12/12 11:06:50;;;;;;;58.35;23.80;;;9.40;93.00;;;;;;5032974;28;20029;-71
2020/12/12 11:09:16;;;;;;;66.18;24.25;;;9.40;93.00;;;;;;5015378;28;20102;-70
2020/12/12 11:11:42;;;;;;;60.75;24.50;;;9.40;93.00;;;;;;5014818;28;20064;-75
2020/12/12 11:14:09;;;;;;;43.60;22.95;;;9.40;93.00;;;;;;5032084;28;20028;-69
2020/12/12 11:16:35;;;;;;;52.58;22.75;;;9.40;93.00;;;;;;5033033;28;20022;-70
2020/12/12 11:19:01;;;;;;;71.75;24.38;;;9.40;93.00;;;;;;5032187;28;20417;-70
2020/12/12 11:21:27;;;;;;;67.40;24.70;;;9.40;93.00;;;;;;5014942;28;20079;-70
2020/12/12 11:23:53;;;;;;;61.33;24.00;;;9.50;93.00;;;;;;5032267;28;20032;-73
2020/12/12 11:26:19;;;;;;;63.85;23.85;;;9.50;93.00;;;;;;5031974;28;20711;-73
2020/12/12 11:28:45;;;;;;;64.25;25.85;;;9.50;93.00;;;;;;5032407;28;20080;-70
2020/12/12 11:31:19;;;;;;;53.58;24.67;;;9.50;93.30;;;;;;5014731;28;20049;-76
2020/12/12 11:33:49;;;;;;;62.05;23.88;;;9.50;93.00;;;;;;5014933;28;20343;-71
2020/12/12 11:36:42;;;;;;;71.25;23.73;;;9.60;93.00;;;;;;5014830;28;20024;-69
2020/12/12 11:42:09;;;;;;;45.10;21.77;;;9.60;93.00;;;;;;5031909;28;20087;-69
2020/12/12 11:47:15;;;;;;;53.13;24.13;;;9.70;93.10;;;;;;5032007;28;20053;-71
2020/12/12 11:49:42;;;;;;;54.65;22.80;;;9.70;93.10;;;;;;5032089;28;20045;-73
2020/12/12 11:52:08;;;;;;;65.72;24.63;;;9.80;93.00;;;;;;5032579;28;20060;-74
2020/12/12 11:54:34;;;;;;;60.90;23.75;;;9.90;93.00;;;;;;5032050;28;20489;-72
2020/12/12 11:57:03;;;;;;;55.05;24.77;;;9.90;92.90;;;;;;5009236;28;20014;-74
2020/12/12 11:59:29;;;;;;;53.05;23.58;;;9.90;92.80;;;;;;5027559;28;20040;-72
2020/12/12 12:01:55;;;;;;;59.35;24.15;;;9.90;92.80;;;;;;5030720;28;20026;-72
2020/12/12 12:04:21;;;;;;;45.45;23.25;;;9.90;92.80;;;;;;5032185;28;20017;-72
2020/12/12 12:06:46;;;;;;;41.70;21.45;;;9.90;92.80;;;;;;5032084;28;20022;-71
2020/12/12 12:09:24;;;;;;;47.70;22.35;;;9.90;92.80;;;;;;5030913;28;20033;-72
2020/12/12 12:11:51;;;;;;;45.03;22.85;;;9.90;92.90;;;;;;5014505;28;20296;-74
2020/12/12 12:14:16;;;;;;;43.75;22.90;;;9.90;92.90;;;;;;5014061;28;20026;-72
2020/12/12 12:16:42;;;;;;;45.88;21.65;;;9.90;92.80;;;;;;5007725;28;20387;-71
2020/12/12 12:19:12;;;;;;;43.00;22.52;;;10.00;92.80;;;;;;5032164;28;20048;-72
2020/12/12 12:21:40;;;;;;;45.60;21.73;;;10.00;92.80;;;;;;5031660;28;20389;-73
2020/12/12 12:24:09;;;;;;;42.58;22.42;;;10.00;92.80;;;;;;5031378;28;20029;-70
2020/12/12 12:26:36;;;;;;;41.47;21.38;;;10.10;92.80;;;;;;5031241;28;20363;-72
2020/12/12 12:29:04;;;;;;;34.42;21.10;;;10.10;92.70;;;;;;5027862;28;20022;-80
2020/12/12 12:31:29;;;;;;;45.40;22.15;;;10.20;92.70;;;;;;5025966;28;20050;-70
2020/12/12 12:33:55;;;;;;;37.03;22.27;;;10.20;92.60;;;;;;4992498;28;20474;-83
2020/12/12 12:36:24;;;;;;;39.97;22.50;;;10.20;92.50;;;;;;5014622;28;20454;-71
2020/12/12 12:38:54;;;;;;;43.08;21.67;;;10.30;92.50;;;;;;5052983;28;20025;-70
2020/12/12 12:41:19;;;;;;;31.88;19.58;;;10.30;92.50;;;;;;5039099;28;20087;-72
2020/12/12 12:43:46;;;;;;;47.90;21.60;;;10.30;92.60;;;;;;5033903;28;20029;-75